createdAt,value
2019-05-02T00:01:58.236Z,8.00
2019-05-02T00:04:25.778Z,8.00
2019-05-02T00:07:06.786Z,7.90
2019-05-02T00:09:53.755Z,7.90
2019-05-02T00:12:21.492Z,7.80
2019-05-02T00:14:49.136Z,7.80
2019-05-02T00:17:20.463Z,7.70
2019-05-02T00:19:49.834Z,7.70
2019-05-02T00:22:18.441Z,7.70
2019-05-02T00:24:46.716Z,7.70
2019-05-02T00:27:14.259Z,7.70
2019-05-02T00:29:41.770Z,7.60
2019-05-02T00:32:09.265Z,7.60
2019-05-02T00:34:36.808Z,7.60
2019-05-02T00:37:07.677Z,7.60
2019-05-02T00:39:35.191Z,7.50
2019-05-02T00:42:12.327Z,7.50
2019-05-02T00:44:32.205Z,7.50
2019-05-02T00:47:10.893Z,7.50
2019-05-02T00:49:36.694Z,7.50
2019-05-02T00:52:04.323Z,7.60
2019-05-02T00:54:31.873Z,7.60
2019-05-02T00:56:59.378Z,7.60
2019-05-02T00:59:28.025Z,7.50
2019-05-02T01:02:20.347Z,7.50
2019-05-02T01:04:48.165Z,7.50
2019-05-02T01:07:15.694Z,7.40
2019-05-02T01:09:46.837Z,7.50
2019-05-02T01:12:25.154Z,7.50
2019-05-02T01:14:41.779Z,7.50
2019-05-02T01:17:12.225Z,7.50
2019-05-02T01:19:39.694Z,7.50
2019-05-02T01:22:10.562Z,7.50
2019-05-02T01:24:39.957Z,7.50
2019-05-02T01:27:14.794Z,7.60
2019-05-02T01:30:01.703Z,7.60
2019-05-02T01:32:33.653Z,7.60
2019-05-02T01:35:09.051Z,7.60
2019-05-02T01:38:14.299Z,7.60
2019-05-02T01:40:42.529Z,7.60
2019-05-02T01:43:29.937Z,7.70
2019-05-02T01:46:02.633Z,7.70
2019-05-02T01:48:30.041Z,7.70
2019-05-02T01:50:57.909Z,7.70
2019-05-02T01:53:29.453Z,7.70
2019-05-02T01:55:57.574Z,7.80
2019-05-02T01:58:26.648Z,7.80
2019-05-02T02:00:54.335Z,7.80
2019-05-02T02:03:21.950Z,7.80
2019-05-02T02:05:49.474Z,7.90
2019-05-02T02:08:17.903Z,7.90
2019-05-02T02:10:50.467Z,7.90
2019-05-02T02:13:20.064Z,7.90
2019-05-02T02:15:47.761Z,7.90
2019-05-02T02:18:16.322Z,7.90
2019-05-02T02:21:27.618Z,7.90
2019-05-02T02:24:03.022Z,7.80
2019-05-02T02:26:30.657Z,7.70
2019-05-02T02:28:58.244Z,7.60
2019-05-02T02:31:25.769Z,7.60
2019-05-02T02:33:54.278Z,7.50
2019-05-02T02:36:31.669Z,7.50
2019-05-02T02:38:51.114Z,7.50
2019-05-02T02:41:21.675Z,7.50
2019-05-02T02:44:07.661Z,7.50
2019-05-02T02:46:37.918Z,7.50
2019-05-02T02:49:05.521Z,7.40
2019-05-02T02:51:33.131Z,7.30
2019-05-02T02:54:03.778Z,7.20
2019-05-02T02:56:34.375Z,7.20
2019-05-02T02:59:02.010Z,7.30
2019-05-02T03:01:31.252Z,7.30
2019-05-02T03:04:02.154Z,7.30
2019-05-02T03:06:38.309Z,7.20
2019-05-02T03:09:05.499Z,7.20
2019-05-02T03:11:41.013Z,7.10
2019-05-02T03:14:18.108Z,7.00
2019-05-02T03:16:47.201Z,7.00
2019-05-02T03:19:20.916Z,7.00
2019-05-02T03:21:54.219Z,7.00
2019-05-02T03:24:25.030Z,6.90
2019-05-02T03:26:55.417Z,6.90
2019-05-02T03:29:41.122Z,6.80
2019-05-02T03:32:16.114Z,6.80
2019-05-02T03:34:52.518Z,6.70
2019-05-02T03:37:13.940Z,6.70
2019-05-02T03:39:49.570Z,6.70
2019-05-02T03:42:13.468Z,6.70
2019-05-02T03:44:41.140Z,6.70
2019-05-02T03:47:09.972Z,6.70
2019-05-02T03:49:40.872Z,6.70
2019-05-02T03:52:11.221Z,6.70
2019-05-02T03:54:48.623Z,6.70
2019-05-02T03:57:08.702Z,6.60
2019-05-02T03:59:39.381Z,6.60
2019-05-02T04:02:05.499Z,6.50
2019-05-02T04:04:36.158Z,6.50
2019-05-02T04:07:03.662Z,6.50
2019-05-02T04:09:38.766Z,6.50
2019-05-02T04:12:05.049Z,6.50
2019-05-02T04:14:37.996Z,6.60
2019-05-02T04:17:04.999Z,6.60
2019-05-02T04:19:35.056Z,6.70
2019-05-02T04:22:08.996Z,6.80
2019-05-02T04:24:32.052Z,6.80
2019-05-02T04:27:00.263Z,6.80
2019-05-02T04:29:31.216Z,6.70
2019-05-02T04:31:57.094Z,6.70
2019-05-02T04:34:24.603Z,6.80
2019-05-02T04:37:01.134Z,6.80
2019-05-02T04:39:23.152Z,6.80
2019-05-02T04:41:50.676Z,6.80
2019-05-02T04:44:18.991Z,6.90
2019-05-02T04:46:48.914Z,6.90
2019-05-02T04:49:22.164Z,7.00
2019-05-02T04:51:59.903Z,7.00
2019-05-02T04:54:25.898Z,7.00
2019-05-02T04:56:53.431Z,7.00
2019-05-02T04:59:22.773Z,7.20
2019-05-02T05:01:52.918Z,7.30
2019-05-02T05:04:17.765Z,7.30
2019-05-02T05:07:00.241Z,7.50
2019-05-02T05:09:24.893Z,7.50
2019-05-02T05:11:53.818Z,7.70
2019-05-02T05:14:22.694Z,7.80
2019-05-02T05:16:53.865Z,7.90
2019-05-02T05:19:23.118Z,8.00
2019-05-02T05:21:58.845Z,8.10
2019-05-02T05:24:40.626Z,8.20
2019-05-02T05:27:04.314Z,8.40
2019-05-02T05:29:34.047Z,8.50
2019-05-02T05:32:05.646Z,8.50
2019-05-02T05:34:32.786Z,8.60
2019-05-02T05:37:03.761Z,8.70
2019-05-02T05:39:29.727Z,8.70
2019-05-02T05:41:57.847Z,8.70
2019-05-02T05:44:28.642Z,8.70
2019-05-02T05:46:54.969Z,8.80
2019-05-02T05:49:22.517Z,8.80
2019-05-02T05:51:54.439Z,8.80
2019-05-02T05:54:19.407Z,8.80
2019-05-02T05:56:48.091Z,8.80
2019-05-02T05:59:17.500Z,8.90
2019-05-02T06:01:47.825Z,8.90
2019-05-02T06:04:19.451Z,9.10
2019-05-02T06:06:44.689Z,9.20
2019-05-02T06:09:13.850Z,9.30
2019-05-02T06:11:41.676Z,9.40
2019-05-02T06:14:09.238Z,9.40
2019-05-02T06:16:36.791Z,9.40
2019-05-02T06:19:04.324Z,9.40
2019-05-02T06:21:31.889Z,9.40
2019-05-02T06:23:59.442Z,9.40
2019-05-02T06:26:26.974Z,9.50
2019-05-02T06:28:54.448Z,9.60
2019-05-02T06:31:21.937Z,9.60
2019-05-02T06:33:49.456Z,9.70
2019-05-02T06:36:17.045Z,9.80
2019-05-02T06:39:05.228Z,9.90
2019-05-02T06:41:32.816Z,10.00
2019-05-02T06:44:02.622Z,10.10
2019-05-02T06:46:31.246Z,10.20
2019-05-02T06:48:58.770Z,10.30
2019-05-02T06:51:26.571Z,10.30
2019-05-02T06:53:54.290Z,10.50
2019-05-02T06:56:21.974Z,10.60
2019-05-02T06:58:49.525Z,10.70
2019-05-02T07:01:21.134Z,10.90
2019-05-02T07:03:47.590Z,11.00
2019-05-02T07:06:15.256Z,11.00
2019-05-02T07:08:42.802Z,11.10
2019-05-02T07:11:10.546Z,11.20
2019-05-02T07:13:41.995Z,11.30
2019-05-02T07:16:37.780Z,11.30
2019-05-02T07:19:00.034Z,11.40
2019-05-02T07:21:27.578Z,11.60
2019-05-02T07:23:56.042Z,11.60
2019-05-02T07:26:23.600Z,11.70
2019-05-02T07:28:51.255Z,11.70
2019-05-02T07:31:18.986Z,11.70
2019-05-02T07:33:46.483Z,11.80
2019-05-02T07:36:14.038Z,11.90
2019-05-02T07:38:41.538Z,12.00
2019-05-02T07:41:09.105Z,12.00
2019-05-02T07:43:38.981Z,12.10
2019-05-02T07:46:06.430Z,12.20
2019-05-02T07:48:36.443Z,12.40
2019-05-02T07:51:03.965Z,12.50
2019-05-02T07:53:31.504Z,12.70
2019-05-02T07:55:59.014Z,12.80
2019-05-02T07:58:26.632Z,12.80
2019-05-02T08:00:54.188Z,12.90
2019-05-02T08:03:21.774Z,12.80
2019-05-02T08:05:54.513Z,13.00
2019-05-02T08:08:25.011Z,13.30
2019-05-02T08:10:53.849Z,13.40
2019-05-02T08:13:21.851Z,13.40
2019-05-02T08:15:50.744Z,13.40
2019-05-02T08:18:18.847Z,13.40
2019-05-02T08:20:46.361Z,13.50
2019-05-02T08:23:13.995Z,13.60
2019-05-02T08:25:45.443Z,13.70
2019-05-02T08:28:19.031Z,13.80
2019-05-02T08:30:51.629Z,13.70
2019-05-02T08:33:19.231Z,13.90
2019-05-02T08:35:46.791Z,14.00
2019-05-02T08:38:17.878Z,14.00
2019-05-02T08:40:47.885Z,13.90
2019-05-02T08:43:15.558Z,13.70
2019-05-02T08:45:46.334Z,13.80
2019-05-02T08:48:13.902Z,13.90
2019-05-02T08:50:42.887Z,13.90
2019-05-02T08:53:14.349Z,13.90
2019-05-02T08:55:41.402Z,14.00
2019-05-02T08:58:14.600Z,14.10
2019-05-02T09:00:39.566Z,14.20
2019-05-02T09:03:07.681Z,14.30
2019-05-02T09:05:36.996Z,14.50
2019-05-02T09:08:09.022Z,14.50
2019-05-02T09:10:37.026Z,14.50
2019-05-02T09:13:03.497Z,14.50
2019-05-02T09:15:31.738Z,14.70
2019-05-02T09:18:21.795Z,14.90
2019-05-02T09:20:52.599Z,15.00
2019-05-02T09:23:18.675Z,15.00
2019-05-02T09:25:46.268Z,14.90
2019-05-02T09:28:17.138Z,14.80
2019-05-02T09:30:43.217Z,14.90
2019-05-02T09:33:11.716Z,15.10
2019-05-02T09:35:39.548Z,15.40
2019-05-02T09:38:07.014Z,15.40
2019-05-02T09:40:34.891Z,15.40
2019-05-02T09:43:04.711Z,15.40
2019-05-02T09:45:37.215Z,15.40
2019-05-02T09:48:07.159Z,15.40
2019-05-02T09:50:34.395Z,15.40
2019-05-02T09:53:01.997Z,15.10
2019-05-02T09:55:31.828Z,14.80
2019-05-02T09:57:59.573Z,14.70
2019-05-02T10:00:42.434Z,14.60
2019-05-02T10:03:11.954Z,14.50
2019-05-02T10:05:39.563Z,14.60
2019-05-02T10:08:10.771Z,14.70
2019-05-02T10:10:37.289Z,14.60
2019-05-02T10:13:06.414Z,14.40
2019-05-02T10:15:34.132Z,14.30
2019-05-02T10:18:10.622Z,14.20
2019-05-02T10:20:36.130Z,13.80
2019-05-02T10:23:02.261Z,13.70
2019-05-02T10:25:30.742Z,13.80
2019-05-02T10:27:59.342Z,13.70
2019-05-02T10:30:33.663Z,13.80
2019-05-02T10:33:19.746Z,13.70
2019-05-02T10:35:48.690Z,13.70
2019-05-02T10:38:19.339Z,13.70
2019-05-02T10:40:48.316Z,13.80
2019-05-02T10:43:15.177Z,13.80
2019-05-02T10:45:47.413Z,13.70
2019-05-02T10:48:24.927Z,13.70
2019-05-02T10:50:48.910Z,13.70
2019-05-02T10:53:16.328Z,13.90
2019-05-02T10:55:44.505Z,13.90
2019-05-02T10:58:12.466Z,13.90
2019-05-02T11:00:44.888Z,13.80
2019-05-02T11:03:37.894Z,13.80
2019-05-02T11:06:07.470Z,13.70
2019-05-02T11:08:36.806Z,13.70
2019-05-02T11:11:05.919Z,13.60
2019-05-02T11:14:05.581Z,13.60
2019-05-02T11:16:53.426Z,13.60
2019-05-02T11:19:42.288Z,13.70
2019-05-02T11:22:12.001Z,14.00
2019-05-02T11:24:39.458Z,14.10
2019-05-02T11:27:08.281Z,14.00
2019-05-02T11:29:36.060Z,14.20
2019-05-02T11:32:23.211Z,14.10
2019-05-02T11:34:52.381Z,13.90
2019-05-02T11:37:20.012Z,13.80
2019-05-02T11:39:52.649Z,13.70
2019-05-02T11:42:20.722Z,13.70
2019-05-02T11:44:46.457Z,13.60
2019-05-02T11:47:22.710Z,13.40
2019-05-02T11:49:53.920Z,13.50
2019-05-02T11:52:17.098Z,13.50
2019-05-02T11:54:48.332Z,13.60
2019-05-02T11:57:28.504Z,13.60
2019-05-02T11:59:59.384Z,13.60
2019-05-02T12:02:58.371Z,13.70
2019-05-02T12:05:35.546Z,13.70
2019-05-02T12:08:07.553Z,13.70
2019-05-02T12:10:33.008Z,13.70
2019-05-02T12:13:02.155Z,13.70
2019-05-02T12:15:29.930Z,13.60
2019-05-02T12:18:20.553Z,13.50
2019-05-02T12:20:53.252Z,13.50
2019-05-02T12:23:22.681Z,13.50
2019-05-02T12:26:03.705Z,13.50
2019-05-02T12:28:32.366Z,13.70
2019-05-02T12:31:00.184Z,13.70
2019-05-02T12:33:31.878Z,13.70
2019-05-02T12:36:12.024Z,13.70
2019-05-02T12:38:41.989Z,13.80
2019-05-02T12:41:19.526Z,13.80
2019-05-02T12:43:38.859Z,13.90
2019-05-02T12:46:06.447Z,13.90
2019-05-02T12:48:34.204Z,13.80
2019-05-02T12:51:02.046Z,13.70
2019-05-02T12:53:29.968Z,13.60
2019-05-02T12:55:57.608Z,13.60
2019-05-02T12:58:25.269Z,13.40
2019-05-02T13:00:53.237Z,13.40
2019-05-02T13:03:55.921Z,13.40
2019-05-02T13:07:02.066Z,13.40
2019-05-02T13:09:29.755Z,13.30
2019-05-02T13:12:14.212Z,13.30
2019-05-02T13:14:42.413Z,13.20
2019-05-02T13:17:12.235Z,13.30
2019-05-02T13:19:43.823Z,13.30
2019-05-02T13:22:27.787Z,13.20
2019-05-02T13:25:06.009Z,13.10
2019-05-02T13:27:58.785Z,13.00
2019-05-02T13:30:42.681Z,13.10
2019-05-02T13:33:06.510Z,13.20
2019-05-02T13:35:42.142Z,13.20
2019-05-02T13:38:13.042Z,13.40
2019-05-02T13:40:45.965Z,13.50
2019-05-02T13:43:13.779Z,13.50
2019-05-02T13:46:04.629Z,13.50
2019-05-02T13:48:32.537Z,13.60
2019-05-02T13:51:03.977Z,13.60
2019-05-02T13:53:32.372Z,13.70
2019-05-02T13:56:47.529Z,13.50
2019-05-02T13:59:15.459Z,13.40
2019-05-02T14:01:44.257Z,13.40
2019-05-02T14:04:14.954Z,13.50
2019-05-02T14:06:42.104Z,13.50
2019-05-02T14:09:37.165Z,13.60
2019-05-02T14:12:36.172Z,13.60
2019-05-02T14:15:04.621Z,13.70
2019-05-02T14:17:37.521Z,13.80
2019-05-02T14:20:10.753Z,13.90
2019-05-02T14:22:34.851Z,14.00
2019-05-02T14:25:02.609Z,14.10
2019-05-02T14:27:33.753Z,14.00
2019-05-02T14:30:02.417Z,14.00
2019-05-02T14:32:32.888Z,14.20
2019-05-02T14:35:11.824Z,14.30
2019-05-02T14:37:42.497Z,14.40
2019-05-02T14:40:19.919Z,14.40
2019-05-02T14:42:47.599Z,14.60
2019-05-02T14:45:27.181Z,14.50
2019-05-02T14:47:49.704Z,14.60
2019-05-02T14:50:23.549Z,14.50
2019-05-02T14:52:45.897Z,14.30
2019-05-02T14:55:17.080Z,14.10
2019-05-02T14:57:46.546Z,14.00
2019-05-02T15:00:17.001Z,14.10
2019-05-02T15:02:49.019Z,14.00
2019-05-02T15:05:14.035Z,13.80
2019-05-02T15:07:56.782Z,13.80
2019-05-02T15:10:24.705Z,13.80
2019-05-02T15:12:59.757Z,13.70
2019-05-02T15:15:23.241Z,13.60
2019-05-02T15:17:52.943Z,13.50
2019-05-02T15:20:22.290Z,13.40
2019-05-02T15:22:52.536Z,13.30
2019-05-02T15:25:21.797Z,13.20
2019-05-02T15:31:34.219Z,13.10
2019-05-02T15:34:17.452Z,13.10
2019-05-02T15:36:52.647Z,13.20
2019-05-02T15:41:52.415Z,13.20
2019-05-02T15:44:31.755Z,13.20
2019-05-02T15:47:06.782Z,13.30
2019-05-02T15:49:45.043Z,13.30
2019-05-02T15:52:18.997Z,13.30
2019-05-02T15:54:44.405Z,13.40
2019-05-02T15:57:19.543Z,13.40
2019-05-02T15:59:46.316Z,13.40
2019-05-02T16:02:22.976Z,13.40
2019-05-02T16:04:48.110Z,13.40
2019-05-02T16:07:17.118Z,13.40
2019-05-02T16:09:51.559Z,13.40
2019-05-02T16:12:18.424Z,13.40
2019-05-02T16:14:45.943Z,13.50
2019-05-02T16:17:29.494Z,13.50
2019-05-02T16:20:09.453Z,13.70
2019-05-02T16:22:31.570Z,13.70
2019-05-02T16:24:59.202Z,13.90
2019-05-02T16:27:48.887Z,13.90
2019-05-02T16:30:22.802Z,14.00
2019-05-02T16:32:57.879Z,14.20
2019-05-02T16:35:28.445Z,14.40
2019-05-02T16:37:57.287Z,14.40
2019-05-02T16:40:29.774Z,14.30
2019-05-02T16:42:54.765Z,14.50
2019-05-02T16:45:27.499Z,14.40
2019-05-02T16:48:03.045Z,14.20
2019-05-02T16:50:35.159Z,14.10
2019-05-02T16:52:59.570Z,14.10
2019-05-02T16:55:27.167Z,13.90
2019-05-02T16:57:56.618Z,13.80
2019-05-02T17:00:25.184Z,13.80
2019-05-02T17:02:52.730Z,13.80
2019-05-02T17:05:21.961Z,13.80
2019-05-02T17:07:56.407Z,13.80
2019-05-02T17:10:27.875Z,13.80
2019-05-02T17:12:57.054Z,13.90
2019-05-02T17:15:35.187Z,13.80
2019-05-02T17:18:04.884Z,13.80
2019-05-02T17:20:31.971Z,13.80
2019-05-02T17:23:03.328Z,13.80
2019-05-02T17:25:29.023Z,13.60
2019-05-02T17:28:02.417Z,13.50
2019-05-02T17:30:33.677Z,13.60
2019-05-02T17:32:58.730Z,13.50
2019-05-02T17:35:28.903Z,13.40
2019-05-02T17:37:56.413Z,13.50
2019-05-02T17:40:26.101Z,13.70
2019-05-02T17:42:57.208Z,13.80
2019-05-02T17:45:25.788Z,13.70
2019-05-02T17:47:53.354Z,13.60
2019-05-02T17:50:54.902Z,13.50
2019-05-02T17:53:19.252Z,13.40
2019-05-02T17:55:46.862Z,13.30
2019-05-02T17:58:16.558Z,13.30
2019-05-02T18:00:47.514Z,13.20
2019-05-02T18:03:16.705Z,13.20
2019-05-02T18:05:46.827Z,13.20
2019-05-02T18:08:14.829Z,13.20
2019-05-02T18:10:42.727Z,13.10
2019-05-02T18:13:12.040Z,13.10
2019-05-02T18:15:41.504Z,13.10
2019-05-02T18:18:09.096Z,13.00
2019-05-02T18:20:37.082Z,13.00
2019-05-02T18:23:06.140Z,13.10
2019-05-02T18:25:34.611Z,13.10
2019-05-02T18:28:04.591Z,13.00
2019-05-02T18:30:33.106Z,12.90
2019-05-02T18:33:07.090Z,12.80
2019-05-02T18:35:37.326Z,12.70
2019-05-02T18:38:02.709Z,12.50
2019-05-02T18:40:32.075Z,12.40
2019-05-02T18:43:02.234Z,12.30
2019-05-02T18:45:29.178Z,12.30
2019-05-02T18:48:02.254Z,12.20
2019-05-02T18:50:37.021Z,12.20
2019-05-02T18:53:05.980Z,12.00
2019-05-02T18:55:38.090Z,11.90
2019-05-02T18:58:12.784Z,11.90
2019-05-02T19:00:44.004Z,11.80
2019-05-02T19:03:15.722Z,11.80
2019-05-02T19:05:42.183Z,11.70
2019-05-02T19:08:11.960Z,11.60
2019-05-02T19:10:42.484Z,11.50
2019-05-02T19:13:08.771Z,11.50
2019-05-02T19:15:39.697Z,11.40
2019-05-02T19:18:10.711Z,11.30
2019-05-02T19:21:06.897Z,11.20
2019-05-02T19:23:35.311Z,11.10
2019-05-02T19:26:09.975Z,11.10
2019-05-02T19:28:54.275Z,10.90
2019-05-02T19:31:24.041Z,10.90
2019-05-02T19:33:52.731Z,10.70
2019-05-02T19:36:24.495Z,10.60
2019-05-02T19:38:49.818Z,10.50
2019-05-02T19:41:17.698Z,10.40
2019-05-02T19:43:49.876Z,10.30
2019-05-02T19:46:31.278Z,10.30
2019-05-02T19:48:52.814Z,10.30
2019-05-02T19:51:22.436Z,10.20
2019-05-02T19:53:53.491Z,10.20
2019-05-02T19:56:19.097Z,10.10
2019-05-02T19:58:46.907Z,10.00
2019-05-02T20:01:21.946Z,9.90
2019-05-02T20:04:15.323Z,9.90
2019-05-02T20:06:43.030Z,9.90
2019-05-02T20:09:11.166Z,9.80
2019-05-02T20:11:38.774Z,9.80
2019-05-02T20:14:09.519Z,9.70
2019-05-02T20:16:45.826Z,9.60
2019-05-02T20:19:17.260Z,9.60
2019-05-02T20:22:17.846Z,9.60
2019-05-02T20:25:00.693Z,9.60
2019-05-02T20:27:28.692Z,9.50
2019-05-02T20:29:56.680Z,9.50
2019-05-02T20:32:24.436Z,9.50
2019-05-02T20:34:52.143Z,9.50
2019-05-02T20:37:26.514Z,9.50
2019-05-02T20:39:54.112Z,9.50
2019-05-02T20:42:21.793Z,9.50
2019-05-02T20:44:52.654Z,9.60
2019-05-02T20:47:23.731Z,9.60
2019-05-02T20:49:51.951Z,9.50
2019-05-02T20:52:21.708Z,9.50
2019-05-02T20:54:49.595Z,9.40
2019-05-02T20:57:21.490Z,9.50
2019-05-02T20:59:49.432Z,9.50
2019-05-02T21:02:17.164Z,9.40
2019-05-02T21:04:45.221Z,9.30
2019-05-02T21:07:23.044Z,9.20
2019-05-02T21:10:18.389Z,9.20
2019-05-02T21:12:45.988Z,9.10
2019-05-02T21:15:13.626Z,9.00
2019-05-02T21:17:44.282Z,8.90
2019-05-02T21:20:12.536Z,8.90
2019-05-02T21:22:42.053Z,8.90
2019-05-02T21:25:09.579Z,8.80
2019-05-02T21:27:39.331Z,8.80
2019-05-02T21:30:07.867Z,8.80
2019-05-02T21:32:35.656Z,8.70
2019-05-02T21:35:04.525Z,8.70
2019-05-02T21:37:42.334Z,8.60
2019-05-02T21:40:11.841Z,8.60
2019-05-02T21:42:39.601Z,8.60
2019-05-02T21:45:08.762Z,8.60
2019-05-02T21:47:36.410Z,8.50
2019-05-02T21:50:12.222Z,8.40
2019-05-02T21:52:47.182Z,8.40
2019-05-02T21:55:40.343Z,8.40
2019-05-02T21:58:08.017Z,8.30
2019-05-02T22:01:02.028Z,8.30
2019-05-02T22:03:29.964Z,8.30
2019-05-02T22:05:57.588Z,8.30
2019-05-02T22:08:25.180Z,8.30
2019-05-02T22:10:52.798Z,8.30
2019-05-02T22:13:22.221Z,8.20
2019-05-02T22:15:52.997Z,8.10
2019-05-02T22:18:21.644Z,8.10
2019-05-02T22:20:49.364Z,8.00
2019-05-02T22:23:17.177Z,7.90
2019-05-02T22:25:44.788Z,7.90
2019-05-02T22:28:12.630Z,7.90
2019-05-02T22:30:40.401Z,7.90
2019-05-02T22:33:07.966Z,7.90
2019-05-02T22:35:35.604Z,7.90
2019-05-02T22:38:14.268Z,8.00
2019-05-02T22:40:43.766Z,8.00
2019-05-02T22:43:13.013Z,8.10
2019-05-02T22:45:41.780Z,8.10
2019-05-02T22:48:09.551Z,8.20
2019-05-02T22:50:37.605Z,8.30
2019-05-02T22:53:05.185Z,8.40
2019-05-02T22:55:32.836Z,8.50
2019-05-02T22:58:02.255Z,8.50
2019-05-02T23:00:29.740Z,8.50
2019-05-02T23:02:57.276Z,8.60
2019-05-02T23:05:24.819Z,8.60
2019-05-02T23:07:52.774Z,8.70
2019-05-02T23:10:22.077Z,8.70
2019-05-02T23:12:51.668Z,8.80
2019-05-02T23:15:19.031Z,8.70
2019-05-02T23:17:46.657Z,8.70
2019-05-02T23:20:14.288Z,8.70
2019-05-02T23:22:41.907Z,8.70
2019-05-02T23:25:28.882Z,8.60
2019-05-02T23:28:05.287Z,8.50
2019-05-02T23:30:32.819Z,8.40
2019-05-02T23:33:02.188Z,8.40
2019-05-02T23:35:29.718Z,8.40
2019-05-02T23:37:57.303Z,8.50
2019-05-02T23:40:24.920Z,8.50
2019-05-02T23:42:52.589Z,8.50
2019-05-02T23:45:20.203Z,8.50
2019-05-02T23:47:57.589Z,8.40
2019-05-02T23:50:25.140Z,8.30
2019-05-02T23:52:52.823Z,8.20
2019-05-02T23:55:20.393Z,8.10
2019-05-02T23:57:55.307Z,8.00
